createdAt,value
2023-04-15T00:00:34.561Z,94.07
2023-04-15T00:01:37.669Z,93.93
2023-04-15T00:02:39.566Z,93.63
2023-04-15T00:03:41.694Z,94.42
2023-04-15T00:04:43.648Z,93.86
2023-04-15T00:05:45.506Z,94.18
2023-04-15T00:06:51.736Z,94.02
2023-04-15T00:07:54.298Z,94.42
2023-04-15T00:08:56.054Z,94.40
2023-04-15T00:09:58.783Z,94.90
2023-04-15T00:11:06.100Z,94.81
2023-04-15T00:12:09.446Z,94.90
2023-04-15T00:13:11.214Z,94.33
2023-04-15T00:14:13.843Z,94.99
2023-04-15T00:15:15.592Z,94.32
2023-04-15T00:16:17.486Z,94.45
2023-04-15T00:17:19.364Z,94.67
2023-04-15T00:18:21.196Z,95.03
2023-04-15T00:19:24.443Z,94.81
2023-04-15T00:20:26.544Z,95.01
2023-04-15T00:21:30.446Z,95.49
2023-04-15T00:22:32.960Z,95.36
2023-04-15T00:23:36.701Z,95.38
2023-04-15T00:24:38.720Z,95.57
2023-04-15T00:25:40.738Z,95.20
2023-04-15T00:26:42.733Z,94.94
2023-04-15T00:27:44.501Z,95.27
2023-04-15T00:28:46.524Z,94.75
2023-04-15T00:29:48.419Z,94.59
2023-04-15T00:30:50.392Z,94.60
2023-04-15T00:31:52.567Z,94.68
2023-04-15T00:32:54.442Z,94.75
2023-04-15T00:33:56.273Z,94.66
2023-04-15T00:34:58.869Z,95.44
2023-04-15T00:36:00.615Z,95.88
2023-04-15T00:37:02.683Z,95.45
2023-04-15T00:38:05.123Z,96.00
2023-04-15T00:39:07.097Z,95.93
2023-04-15T00:40:12.536Z,96.02
2023-04-15T00:41:14.668Z,95.62
2023-04-15T00:42:17.476Z,95.65
2023-04-15T00:43:19.306Z,95.41
2023-04-15T00:44:21.339Z,95.26
2023-04-15T00:45:23.581Z,95.34
2023-04-15T00:46:27.061Z,95.02
2023-04-15T00:47:30.177Z,94.94
2023-04-15T00:48:32.574Z,94.92
2023-04-15T00:49:34.384Z,95.01
2023-04-15T00:50:36.080Z,94.90
2023-04-15T00:51:37.918Z,94.69
2023-04-15T00:52:40.209Z,94.97
2023-04-15T00:53:42.279Z,94.98
2023-04-15T00:54:44.091Z,95.06
2023-04-15T00:55:45.873Z,95.04
2023-04-15T00:56:47.722Z,94.99
2023-04-15T00:57:49.641Z,95.14
2023-04-15T00:58:51.960Z,95.38
2023-04-15T00:59:54.088Z,95.18
2023-04-15T01:00:56.041Z,95.34
2023-04-15T01:01:57.987Z,95.30
2023-04-15T01:03:00.333Z,95.22
2023-04-15T01:04:02.669Z,95.42
2023-04-15T01:05:05.107Z,95.35
2023-04-15T01:06:07.991Z,95.64
2023-04-15T01:07:09.773Z,95.68
2023-04-15T01:08:11.733Z,95.72
2023-04-15T01:09:13.517Z,95.82
2023-04-15T01:10:15.496Z,95.10
2023-04-15T01:11:17.569Z,95.32
2023-04-15T01:12:20.825Z,95.42
2023-04-15T01:13:24.196Z,95.63
2023-04-15T01:14:26.180Z,95.61
2023-04-15T01:15:27.972Z,95.77
2023-04-15T01:16:29.925Z,95.69
2023-04-15T01:17:31.876Z,95.63
2023-04-15T01:18:33.797Z,95.51
2023-04-15T01:19:37.444Z,95.56
2023-04-15T01:20:39.265Z,95.73
2023-04-15T01:21:41.480Z,95.71
2023-04-15T01:22:43.408Z,95.67
2023-04-15T01:23:47.475Z,95.64
2023-04-15T01:25:02.178Z,95.52
2023-04-15T01:26:04.057Z,95.57
2023-04-15T01:27:06.056Z,95.06
2023-04-15T01:28:09.776Z,94.57
2023-04-15T01:29:12.561Z,94.86
2023-04-15T01:30:14.274Z,94.84
2023-04-15T01:31:16.056Z,94.54
2023-04-15T01:32:17.847Z,94.95
2023-04-15T01:33:19.620Z,94.62
2023-04-15T01:34:22.850Z,94.79
2023-04-15T01:35:24.921Z,94.54
2023-04-15T01:36:26.687Z,94.71
2023-04-15T01:37:28.995Z,94.97
2023-04-15T01:38:31.615Z,94.82
2023-04-15T01:39:34.113Z,94.78
2023-04-15T01:40:35.934Z,94.71
2023-04-15T01:41:37.758Z,94.65
2023-04-15T01:42:39.741Z,94.71
2023-04-15T01:43:41.459Z,94.35
2023-04-15T01:44:44.540Z,94.08
2023-04-15T01:45:47.282Z,93.98
2023-04-15T01:46:49.725Z,94.65
2023-04-15T01:47:51.645Z,94.54
2023-04-15T01:48:53.482Z,94.33
2023-04-15T01:49:55.281Z,94.60
2023-04-15T01:50:58.575Z,94.89
2023-04-15T01:52:00.946Z,95.01
2023-04-15T01:53:02.717Z,95.58
2023-04-15T01:54:04.457Z,95.46
2023-04-15T01:55:06.539Z,95.39
2023-04-15T01:56:08.405Z,95.51
2023-04-15T01:57:11.638Z,95.46
2023-04-15T01:58:13.424Z,95.64
2023-04-15T01:59:15.260Z,95.25
2023-04-15T02:00:17.888Z,95.30
2023-04-15T02:01:20.188Z,95.25
2023-04-15T02:02:22.168Z,95.08
2023-04-15T02:03:25.368Z,94.61
2023-04-15T02:04:28.187Z,95.09
2023-04-15T02:05:29.965Z,94.81
2023-04-15T02:06:32.011Z,94.87
2023-04-15T02:07:33.862Z,95.16
2023-04-15T02:08:35.614Z,95.03
2023-04-15T02:09:37.367Z,94.82
2023-04-15T02:10:39.427Z,94.70
2023-04-15T02:11:41.198Z,94.97
2023-04-15T02:12:43.199Z,94.84
2023-04-15T02:13:44.961Z,94.97
2023-04-15T02:14:47.451Z,95.17
2023-04-15T02:15:50.071Z,95.28
2023-04-15T02:16:51.904Z,95.28
2023-04-15T02:17:55.663Z,95.49
2023-04-15T02:18:58.111Z,95.38
2023-04-15T02:19:59.938Z,95.57
2023-04-15T02:21:02.677Z,95.46
2023-04-15T02:22:04.619Z,95.29
2023-04-15T02:23:07.708Z,95.38
2023-04-15T02:24:09.494Z,94.98
2023-04-15T02:25:11.995Z,95.50
2023-04-15T02:26:14.162Z,94.99
2023-04-15T02:27:17.162Z,95.13
2023-04-15T02:28:18.955Z,94.89
2023-04-15T02:29:20.697Z,95.05
2023-04-15T02:30:24.206Z,94.73
2023-04-15T02:31:26.310Z,94.87
2023-04-15T02:32:29.229Z,94.92
2023-04-15T02:33:32.564Z,95.15
2023-04-15T02:34:34.459Z,94.89
2023-04-15T02:35:39.541Z,94.49
2023-04-15T02:36:41.616Z,94.65
2023-04-15T02:37:46.052Z,94.50
2023-04-15T02:38:47.790Z,94.68
2023-04-15T02:39:50.394Z,94.36
2023-04-15T02:40:52.359Z,94.33
2023-04-15T02:41:55.630Z,94.18
2023-04-15T02:42:57.398Z,93.92
2023-04-15T02:43:59.227Z,94.33
2023-04-15T02:45:01.027Z,93.84
2023-04-15T02:46:02.888Z,93.74
2023-04-15T02:47:06.964Z,93.83
2023-04-15T02:48:08.726Z,93.56
2023-04-15T02:49:11.345Z,93.32
2023-04-15T02:50:13.665Z,94.02
2023-04-15T02:51:16.924Z,93.60
2023-04-15T02:52:18.832Z,93.22
2023-04-15T02:53:21.032Z,93.31
2023-04-15T02:54:26.170Z,93.33
2023-04-15T02:55:28.100Z,93.07
2023-04-15T02:56:31.106Z,93.37
2023-04-15T02:57:32.970Z,93.40
2023-04-15T02:58:36.235Z,93.27
2023-04-15T02:59:39.235Z,93.07
2023-04-15T03:00:40.975Z,92.77
2023-04-15T03:01:42.988Z,92.95
2023-04-15T03:02:47.676Z,92.85
2023-04-15T03:03:49.866Z,93.21
2023-04-15T03:04:52.703Z,92.77
2023-04-15T03:05:54.655Z,93.12
2023-04-15T03:06:56.999Z,93.24
2023-04-15T03:07:58.801Z,93.45
2023-04-15T03:09:01.254Z,93.46
2023-04-15T03:10:03.750Z,93.62
2023-04-15T03:11:05.587Z,93.46
2023-04-15T03:12:07.618Z,93.36
2023-04-15T03:13:09.365Z,93.76
2023-04-15T03:14:11.398Z,93.24
2023-04-15T03:15:13.270Z,93.42
2023-04-15T03:16:15.170Z,92.91
2023-04-15T03:17:17.483Z,93.23
2023-04-15T03:18:19.233Z,93.06
2023-04-15T03:19:21.317Z,93.05
2023-04-15T03:20:24.745Z,93.43
2023-04-15T03:21:27.000Z,93.24
2023-04-15T03:22:28.843Z,93.15
2023-04-15T03:23:31.582Z,93.38
2023-04-15T03:24:33.398Z,93.16
2023-04-15T03:25:37.834Z,93.64
2023-04-15T03:26:39.954Z,93.49
2023-04-15T03:27:42.242Z,93.82
2023-04-15T03:28:44.000Z,93.76
2023-04-15T03:29:46.147Z,93.69
2023-04-15T03:30:48.176Z,93.78
2023-04-15T03:31:50.689Z,93.54
2023-04-15T03:32:52.567Z,93.29
2023-04-15T03:33:54.373Z,93.73
2023-04-15T03:34:56.214Z,93.96
2023-04-15T03:35:58.002Z,93.73
2023-04-15T03:37:00.730Z,93.83
2023-04-15T03:38:02.500Z,94.02
2023-04-15T03:39:04.449Z,93.74
2023-04-15T03:40:06.499Z,93.74
2023-04-15T03:41:08.279Z,93.72
2023-04-15T03:42:10.067Z,93.77
2023-04-15T03:43:12.554Z,93.33
2023-04-15T03:44:14.305Z,92.90
2023-04-15T03:45:16.348Z,93.20
2023-04-15T03:46:18.642Z,93.32
2023-04-15T03:47:20.781Z,92.76
2023-04-15T03:48:22.788Z,92.91
2023-04-15T03:49:24.858Z,92.56
2023-04-15T03:50:26.804Z,92.88
2023-04-15T03:51:28.601Z,92.96
2023-04-15T03:52:30.452Z,92.74
2023-04-15T03:53:32.745Z,92.68
2023-04-15T03:54:34.472Z,92.63
2023-04-15T03:55:36.258Z,92.91
2023-04-15T03:56:37.991Z,92.53
2023-04-15T03:57:39.986Z,93.06
2023-04-15T03:58:41.765Z,92.84
2023-04-15T03:59:44.171Z,93.22
2023-04-15T04:00:46.138Z,93.01
2023-04-15T04:01:48.800Z,93.18
2023-04-15T04:02:51.098Z,93.10
2023-04-15T04:03:53.152Z,93.27
2023-04-15T04:04:55.339Z,93.07
2023-04-15T04:05:57.114Z,93.38
2023-04-15T04:06:58.858Z,92.97
2023-04-15T04:08:00.904Z,93.10
2023-04-15T04:09:03.019Z,93.48
2023-04-15T04:10:05.275Z,93.66
2023-04-15T04:11:07.097Z,93.59
2023-04-15T04:12:09.228Z,93.65
2023-04-15T04:13:10.965Z,93.69
2023-04-15T04:14:12.824Z,93.77
2023-04-15T04:15:14.682Z,93.96
2023-04-15T04:16:16.796Z,94.03
2023-04-15T04:17:18.769Z,94.01
2023-04-15T04:18:20.844Z,94.17
2023-04-15T04:19:22.739Z,93.98
2023-04-15T04:20:24.561Z,94.29
2023-04-15T04:21:26.984Z,93.74
2023-04-15T04:22:28.889Z,93.73
2023-04-15T04:23:30.793Z,93.36
2023-04-15T04:24:32.792Z,93.36
2023-04-15T04:25:34.547Z,93.43
2023-04-15T04:26:36.292Z,93.58
2023-04-15T04:27:38.151Z,93.77
2023-04-15T04:28:40.790Z,93.84
2023-04-15T04:29:42.846Z,93.78
2023-04-15T04:30:44.779Z,93.45
2023-04-15T04:31:47.336Z,93.79
2023-04-15T04:32:50.333Z,93.96
2023-04-15T04:33:52.116Z,93.63
2023-04-15T04:34:54.000Z,93.89
2023-04-15T04:35:55.804Z,93.75
2023-04-15T04:36:57.631Z,93.64
2023-04-15T04:37:59.468Z,93.46
2023-04-15T04:39:01.821Z,93.66
2023-04-15T04:40:03.994Z,93.63
2023-04-15T04:41:06.309Z,93.59
2023-04-15T04:42:08.202Z,93.84
2023-04-15T04:43:10.273Z,94.04
2023-04-15T04:44:12.021Z,94.06
2023-04-15T04:45:13.874Z,94.19
2023-04-15T04:46:15.857Z,94.52
2023-04-15T04:47:17.641Z,94.47
2023-04-15T04:48:20.186Z,94.66
2023-04-15T04:49:21.953Z,94.45
2023-04-15T04:50:23.764Z,95.08
2023-04-15T04:51:26.438Z,94.95
2023-04-15T04:52:28.277Z,94.95
2023-04-15T04:53:30.024Z,95.01
2023-04-15T04:54:32.707Z,94.77
2023-04-15T04:55:37.237Z,94.97
2023-04-15T04:56:40.029Z,94.80
2023-04-15T04:57:41.828Z,94.52
2023-04-15T04:58:43.627Z,94.72
2023-04-15T04:59:45.383Z,94.51
2023-04-15T05:00:47.267Z,94.28
2023-04-15T05:01:49.080Z,94.32
2023-04-15T05:02:51.026Z,94.34
2023-04-15T05:03:52.966Z,94.07
2023-04-15T05:04:54.845Z,93.98
2023-04-15T05:05:56.763Z,94.14
2023-04-15T05:06:59.596Z,94.32
2023-04-15T05:08:01.655Z,94.73
2023-04-15T05:09:03.927Z,94.57
2023-04-15T05:10:06.258Z,94.51
2023-04-15T05:11:08.166Z,94.62
2023-04-15T05:12:15.256Z,94.42
2023-04-15T05:13:17.059Z,94.29
2023-04-15T05:14:18.823Z,94.35
2023-04-15T05:15:20.667Z,94.53
2023-04-15T05:16:22.532Z,94.61
2023-04-15T05:17:24.402Z,94.69
2023-04-15T05:18:26.201Z,95.09
2023-04-15T05:19:27.983Z,95.28
2023-04-15T05:20:29.778Z,95.64
2023-04-15T05:21:32.888Z,95.62
2023-04-15T05:22:34.736Z,95.46
2023-04-15T05:23:36.757Z,95.72
2023-04-15T05:24:38.579Z,95.60
2023-04-15T05:25:40.420Z,95.52
2023-04-15T05:26:43.026Z,95.45
2023-04-15T05:27:44.914Z,95.30
2023-04-15T05:28:46.716Z,95.13
2023-04-15T05:29:48.563Z,95.29
2023-04-15T05:30:50.754Z,95.13
2023-04-15T05:31:53.859Z,95.13
2023-04-15T05:32:55.909Z,95.19
2023-04-15T05:33:58.904Z,95.14
2023-04-15T05:35:00.836Z,94.82
2023-04-15T05:36:02.656Z,94.95
2023-04-15T05:37:04.484Z,94.95
2023-04-15T05:38:06.685Z,95.18
2023-04-15T05:39:08.490Z,95.19
2023-04-15T05:40:10.857Z,95.46
2023-04-15T05:41:12.825Z,95.25
2023-04-15T05:42:14.733Z,95.26
2023-04-15T05:43:16.493Z,95.39
2023-04-15T05:44:18.302Z,94.77
2023-04-15T05:45:20.525Z,94.91
2023-04-15T05:46:22.961Z,95.05
2023-04-15T05:47:25.995Z,95.31
2023-04-15T05:48:27.749Z,95.34
2023-04-15T05:49:29.626Z,94.75
2023-04-15T05:50:31.597Z,95.02
2023-04-15T05:51:33.353Z,94.84
2023-04-15T05:52:35.891Z,95.16
2023-04-15T05:53:37.701Z,95.26
2023-04-15T05:54:39.532Z,95.60
2023-04-15T05:55:41.377Z,95.66
2023-04-15T05:56:43.209Z,95.49
2023-04-15T05:57:45.016Z,94.98
2023-04-15T05:58:46.765Z,95.06
2023-04-15T05:59:49.503Z,94.91
2023-04-15T06:00:51.502Z,95.27
2023-04-15T06:01:53.513Z,95.30
2023-04-15T06:02:56.608Z,95.36
2023-04-15T06:03:58.555Z,95.73
2023-04-15T06:05:01.351Z,95.97
2023-04-15T06:06:04.204Z,95.68
2023-04-15T06:07:06.566Z,95.81
2023-04-15T06:08:08.590Z,95.88
2023-04-15T06:09:10.405Z,95.66
2023-04-15T06:10:12.161Z,95.58
2023-04-15T06:11:13.995Z,95.61
2023-04-15T06:12:15.960Z,95.81
2023-04-15T06:13:17.929Z,96.07
2023-04-15T06:14:19.746Z,95.93
2023-04-15T06:15:21.539Z,95.71
2023-04-15T06:16:23.660Z,95.67
2023-04-15T06:17:25.850Z,95.33
2023-04-15T06:18:28.903Z,95.38
2023-04-15T06:19:30.944Z,95.12
2023-04-15T06:20:32.908Z,95.23
2023-04-15T06:21:34.813Z,95.05
2023-04-15T06:22:37.359Z,94.95
2023-04-15T06:23:41.514Z,95.19
2023-04-15T06:24:43.296Z,95.19
2023-04-15T06:25:45.040Z,95.68
2023-04-15T06:26:46.766Z,95.34
2023-04-15T06:27:48.665Z,95.28
2023-04-15T06:28:50.908Z,95.36
2023-04-15T06:29:52.662Z,95.79
2023-04-15T06:30:54.869Z,95.49
2023-04-15T06:31:57.058Z,95.47
2023-04-15T06:32:59.194Z,95.78
2023-04-15T06:34:01.058Z,95.46
2023-04-15T06:35:03.008Z,95.41
2023-04-15T06:36:04.814Z,95.35
2023-04-15T06:37:06.915Z,94.87
2023-04-15T06:38:08.648Z,95.00
2023-04-15T06:39:10.784Z,94.89
2023-04-15T06:40:12.717Z,95.18
2023-04-15T06:41:14.552Z,95.16
2023-04-15T06:42:16.455Z,94.70
2023-04-15T06:43:18.686Z,94.64
2023-04-15T06:44:21.964Z,94.80
2023-04-15T06:45:23.786Z,94.36
2023-04-15T06:46:25.664Z,94.42
2023-04-15T06:47:27.600Z,95.27
2023-04-15T06:48:29.323Z,95.37
2023-04-15T06:49:32.017Z,95.07
2023-04-15T06:50:33.966Z,94.89
2023-04-15T06:51:36.462Z,94.85
2023-04-15T06:52:38.261Z,95.19
2023-04-15T06:53:42.231Z,95.41
2023-04-15T06:54:44.147Z,95.55
2023-04-15T06:55:46.127Z,96.18
2023-04-15T06:56:48.403Z,95.46
2023-04-15T06:57:50.181Z,95.75
2023-04-15T06:58:52.519Z,95.74
2023-04-15T06:59:54.851Z,95.38
2023-04-15T07:00:57.098Z,95.20
2023-04-15T07:01:58.884Z,95.20
2023-04-15T07:03:04.064Z,95.13
2023-04-15T07:04:06.450Z,94.91
2023-04-15T07:05:08.784Z,94.89
2023-04-15T07:06:10.578Z,95.37
2023-04-15T07:07:12.494Z,95.55
2023-04-15T07:08:14.372Z,95.50
2023-04-15T07:09:16.152Z,95.66
2023-04-15T07:10:17.892Z,96.14
2023-04-15T07:11:20.175Z,96.19
2023-04-15T07:12:22.080Z,95.80
2023-04-15T07:13:23.825Z,95.51
2023-04-15T07:14:25.715Z,95.84
2023-04-15T07:15:27.571Z,95.42
2023-04-15T07:16:30.150Z,95.30
2023-04-15T07:17:31.985Z,95.56
2023-04-15T07:18:33.804Z,95.62
2023-04-15T07:19:36.320Z,95.29
2023-04-15T07:20:38.288Z,95.40
2023-04-15T07:21:41.821Z,95.30
2023-04-15T07:22:43.887Z,95.74
2023-04-15T07:23:45.704Z,95.97
2023-04-15T07:24:47.497Z,95.59
2023-04-15T07:25:49.460Z,96.08
2023-04-15T07:26:51.492Z,96.10
2023-04-15T07:27:53.455Z,96.23
2023-04-15T07:28:55.155Z,96.10
2023-04-15T07:29:56.947Z,95.93
2023-04-15T07:30:58.755Z,95.96
2023-04-15T07:32:00.695Z,95.70
2023-04-15T07:33:03.326Z,96.28
2023-04-15T07:34:05.478Z,96.33
2023-04-15T07:35:08.084Z,96.39
2023-04-15T07:36:10.790Z,96.16
2023-04-15T07:37:12.940Z,95.86
2023-04-15T07:38:14.764Z,95.96
2023-04-15T07:39:16.851Z,95.18
2023-04-15T07:40:18.755Z,95.68
2023-04-15T07:41:21.296Z,95.53
2023-04-15T07:42:23.064Z,95.70
2023-04-15T07:43:24.874Z,95.54
2023-04-15T07:44:27.184Z,95.67
2023-04-15T07:45:28.865Z,95.37
2023-04-15T07:46:31.002Z,96.05
2023-04-15T07:47:32.936Z,96.07
2023-04-15T07:48:35.575Z,96.14
2023-04-15T07:49:38.804Z,96.90
2023-04-15T07:50:40.620Z,96.57
2023-04-15T07:51:42.402Z,96.21
2023-04-15T07:52:44.488Z,96.36
2023-04-15T07:53:46.331Z,96.25
2023-04-15T07:54:48.117Z,96.22
2023-04-15T07:55:49.950Z,96.25
2023-04-15T07:56:52.054Z,96.12
2023-04-15T07:57:53.790Z,95.89
2023-04-15T07:58:55.785Z,95.80
2023-04-15T07:59:57.561Z,95.37
2023-04-15T08:00:59.346Z,95.22
2023-04-15T08:02:01.392Z,94.87
2023-04-15T08:03:03.531Z,94.76
2023-04-15T08:04:05.639Z,94.00
2023-04-15T08:05:07.891Z,94.26
2023-04-15T08:06:09.686Z,94.60
2023-04-15T08:07:11.542Z,93.75
2023-04-15T08:08:13.834Z,93.35
2023-04-15T08:09:15.555Z,93.92
2023-04-15T08:10:17.729Z,93.72
2023-04-15T08:11:19.495Z,93.83
2023-04-15T08:12:21.441Z,94.22
2023-04-15T08:13:23.215Z,93.73
2023-04-15T08:14:25.035Z,93.24
2023-04-15T08:15:26.903Z,93.17
2023-04-15T08:16:28.884Z,93.45
2023-04-15T08:17:32.203Z,93.16
2023-04-15T08:18:34.155Z,93.50
2023-04-15T08:19:37.429Z,93.69
2023-04-15T08:20:39.234Z,94.42
2023-04-15T08:21:41.251Z,93.43
2023-04-15T08:22:43.094Z,94.25
2023-04-15T08:23:45.671Z,94.01
2023-04-15T08:24:47.517Z,94.05
2023-04-15T08:25:49.345Z,94.56
2023-04-15T08:26:51.832Z,94.13
2023-04-15T08:27:56.032Z,94.51
2023-04-15T08:28:57.905Z,94.64
2023-04-15T08:30:00.196Z,94.43
2023-04-15T08:31:03.027Z,94.59
2023-04-15T08:32:05.063Z,93.92
2023-04-15T08:33:06.917Z,93.38
2023-04-15T08:34:09.500Z,93.55
2023-04-15T08:35:11.278Z,94.37
2023-04-15T08:36:14.192Z,94.48
2023-04-15T08:37:15.915Z,94.40
2023-04-15T08:38:19.157Z,94.81
2023-04-15T08:39:21.137Z,94.71
2023-04-15T08:40:24.795Z,94.61
2023-04-15T08:41:27.543Z,94.76
2023-04-15T08:42:34.952Z,94.49
2023-04-15T08:43:41.163Z,94.90
2023-04-15T08:44:45.120Z,94.90
2023-04-15T08:45:47.081Z,94.58
2023-04-15T08:46:49.011Z,94.98
2023-04-15T08:47:53.389Z,95.04
2023-04-15T08:48:57.543Z,94.58
2023-04-15T08:49:59.896Z,95.06
2023-04-15T08:51:02.758Z,94.82
2023-04-15T08:52:04.870Z,94.86
2023-04-15T08:53:07.923Z,95.51
2023-04-15T08:54:10.228Z,95.42
2023-04-15T08:55:12.425Z,94.62
2023-04-15T08:56:15.762Z,94.21
2023-04-15T08:57:18.465Z,94.49
2023-04-15T08:58:20.245Z,93.90
2023-04-15T08:59:22.432Z,94.51
2023-04-15T09:00:24.377Z,94.30
2023-04-15T09:01:26.815Z,93.62
2023-04-15T09:02:28.843Z,93.74
2023-04-15T09:03:30.858Z,93.73
2023-04-15T09:04:33.478Z,93.66
2023-04-15T09:05:38.068Z,93.37
2023-04-15T09:06:40.302Z,93.50
2023-04-15T09:07:42.196Z,93.22
2023-04-15T09:08:44.308Z,93.66
2023-04-15T09:09:47.199Z,93.28
2023-04-15T09:10:49.012Z,93.89
2023-04-15T09:11:52.154Z,93.80
2023-04-15T09:12:53.963Z,93.49
2023-04-15T09:13:56.894Z,92.86
2023-04-15T09:14:59.435Z,93.76
2023-04-15T09:16:05.673Z,94.11
2023-04-15T09:17:10.736Z,94.11
2023-04-15T09:19:21.208Z,95.73
2023-04-15T09:20:40.422Z,95.25
2023-04-15T09:21:42.210Z,95.47
2023-04-15T09:22:47.477Z,94.48
2023-04-15T09:23:59.094Z,95.08
2023-04-15T09:25:01.627Z,95.22
2023-04-15T09:26:04.012Z,94.53
2023-04-15T09:27:05.897Z,95.19
2023-04-15T09:28:07.577Z,94.64
2023-04-15T09:29:10.275Z,95.15
2023-04-15T09:30:12.236Z,95.45
2023-04-15T09:31:14.104Z,95.29
2023-04-15T09:32:16.427Z,95.10
2023-04-15T09:33:18.266Z,94.90
2023-04-15T09:34:20.259Z,94.31
2023-04-15T09:35:22.721Z,94.54
2023-04-15T09:36:25.371Z,94.66
2023-04-15T09:37:36.999Z,94.43
2023-04-15T09:38:54.858Z,94.87
2023-04-15T09:39:56.698Z,95.23
2023-04-15T09:40:59.051Z,94.75
2023-04-15T09:42:07.934Z,94.44
2023-04-15T09:43:13.161Z,94.81
2023-04-15T09:44:24.822Z,94.83
2023-04-15T09:45:29.338Z,94.95
2023-04-15T09:46:44.798Z,94.49
2023-04-15T09:47:46.789Z,93.94
2023-04-15T09:49:07.384Z,94.02
2023-04-15T09:50:09.425Z,93.61
2023-04-15T09:51:11.408Z,94.30
2023-04-15T09:52:14.286Z,93.45
2023-04-15T09:53:17.123Z,93.52
2023-04-15T09:54:22.470Z,94.16
2023-04-15T09:55:24.254Z,94.17
2023-04-15T09:56:32.473Z,93.57
2023-04-15T09:57:36.380Z,93.57
2023-04-15T09:58:39.054Z,94.22
2023-04-15T09:59:41.220Z,93.92
2023-04-15T10:00:43.103Z,94.24
2023-04-15T10:01:45.258Z,93.57
2023-04-15T10:02:48.746Z,93.92
2023-04-15T10:03:51.381Z,94.60
2023-04-15T10:04:54.024Z,94.37
2023-04-15T10:05:57.353Z,93.80
2023-04-15T10:06:59.521Z,94.31
2023-04-15T10:08:02.908Z,94.14
2023-04-15T10:09:06.839Z,93.25
2023-04-15T10:10:09.794Z,93.83
2023-04-15T10:11:12.771Z,93.89
2023-04-15T10:12:17.017Z,93.81
2023-04-15T10:13:21.006Z,94.15
2023-04-15T10:14:24.130Z,93.89
2023-04-15T10:15:27.182Z,93.41
2023-04-15T10:16:29.325Z,93.10
2023-04-15T10:17:37.332Z,93.36
2023-04-15T10:18:42.970Z,93.31
2023-04-15T10:19:45.265Z,93.38
2023-04-15T10:20:48.573Z,93.41
2023-04-15T10:21:50.762Z,94.33
2023-04-15T10:22:53.252Z,94.42
2023-04-15T10:23:55.305Z,94.50
2023-04-15T10:24:57.546Z,94.51
2023-04-15T10:26:00.536Z,94.51
2023-04-15T10:27:05.592Z,94.32
2023-04-15T10:28:09.119Z,93.89
2023-04-15T10:29:11.054Z,93.44
2023-04-15T10:30:13.058Z,93.76
2023-04-15T10:31:15.514Z,94.00
2023-04-15T10:32:21.462Z,94.06
2023-04-15T10:33:24.180Z,93.21
2023-04-15T10:34:26.418Z,92.89
2023-04-15T10:35:29.895Z,93.73
2023-04-15T10:36:31.726Z,94.05
2023-04-15T10:37:36.877Z,93.79
2023-04-15T10:38:40.035Z,94.01
2023-04-15T10:39:43.401Z,93.99
2023-04-15T10:40:46.006Z,93.92
2023-04-15T10:42:07.568Z,93.85
2023-04-15T10:43:25.046Z,93.69
2023-04-15T10:44:26.822Z,92.10
2023-04-15T10:45:38.068Z,92.12
2023-04-15T10:46:46.015Z,93.12
2023-04-15T10:47:53.563Z,93.55
2023-04-15T10:48:55.458Z,93.78
2023-04-15T10:49:58.890Z,92.94
2023-04-15T10:51:05.378Z,92.57
2023-04-15T10:52:08.656Z,92.13
2023-04-15T10:53:10.996Z,90.75
2023-04-15T10:54:16.723Z,89.88
2023-04-15T10:55:22.784Z,89.64
2023-04-15T10:56:24.625Z,89.72
2023-04-15T10:57:34.544Z,89.70
2023-04-15T10:58:44.524Z,89.85
2023-04-15T10:59:55.340Z,89.16
2023-04-15T11:00:57.087Z,89.91
2023-04-15T11:02:03.087Z,90.08
2023-04-15T11:03:09.857Z,90.35
2023-04-15T11:04:12.074Z,90.61
2023-04-15T11:05:14.685Z,90.66
2023-04-15T11:06:16.562Z,90.37
2023-04-15T11:07:33.657Z,90.81
2023-04-15T11:08:56.150Z,89.83
2023-04-15T11:09:57.931Z,89.73
2023-04-15T11:11:00.617Z,89.54
2023-04-15T11:12:10.572Z,89.79
2023-04-15T11:13:12.309Z,89.01
2023-04-15T11:14:17.004Z,88.51
2023-04-15T11:15:33.943Z,88.64
2023-04-15T11:16:43.238Z,89.59
2023-04-15T11:17:46.435Z,89.61
2023-04-15T11:18:58.339Z,89.14
2023-04-15T11:20:00.438Z,89.35
2023-04-15T11:21:06.645Z,89.81
2023-04-15T11:22:09.895Z,90.83
2023-04-15T11:23:15.151Z,90.75
2023-04-15T11:24:29.373Z,91.69
2023-04-15T11:25:32.469Z,90.92
2023-04-15T11:26:34.694Z,89.93
2023-04-15T11:27:36.473Z,90.06
2023-04-15T11:28:40.242Z,89.07
2023-04-15T11:29:41.978Z,89.68
2023-04-15T11:30:44.090Z,89.52
2023-04-15T11:31:50.411Z,89.25
2023-04-15T11:32:53.143Z,88.98
2023-04-15T11:33:59.656Z,89.59
2023-04-15T11:35:01.477Z,88.67
2023-04-15T11:36:04.631Z,88.89
2023-04-15T11:37:06.889Z,88.97
2023-04-15T11:38:10.352Z,89.21
2023-04-15T11:39:12.200Z,88.06
2023-04-15T11:40:15.698Z,87.95
2023-04-15T11:41:21.192Z,87.79
2023-04-15T11:42:22.890Z,87.94
2023-04-15T11:43:25.503Z,87.10
2023-04-15T11:44:27.350Z,87.85
2023-04-15T11:45:29.207Z,88.40
2023-04-15T11:46:32.167Z,87.89
2023-04-15T11:47:34.216Z,88.91
2023-04-15T11:48:37.031Z,88.69
2023-04-15T11:49:41.885Z,89.08
2023-04-15T11:50:43.694Z,87.93
2023-04-15T11:51:45.623Z,88.00
2023-04-15T11:52:58.084Z,88.77
2023-04-15T11:53:59.992Z,88.26
2023-04-15T11:55:05.001Z,89.01
2023-04-15T11:56:07.299Z,88.50
2023-04-15T11:57:09.117Z,89.46
2023-04-15T11:58:20.666Z,89.46
2023-04-15T11:59:23.007Z,88.53
2023-04-15T12:00:27.238Z,89.17
2023-04-15T12:01:36.276Z,88.74
2023-04-15T12:02:38.187Z,89.23
2023-04-15T12:03:41.887Z,88.53
2023-04-15T12:04:44.031Z,88.75
2023-04-15T12:06:04.518Z,88.41
2023-04-15T12:07:07.762Z,88.78
2023-04-15T12:08:09.515Z,88.18
2023-04-15T12:09:14.899Z,87.75
2023-04-15T12:10:18.075Z,88.86
2023-04-15T12:11:38.573Z,88.97
2023-04-15T12:12:41.357Z,90.03
2023-04-15T12:13:50.376Z,90.91
2023-04-15T12:14:52.380Z,90.08
2023-04-15T12:15:56.328Z,89.58
2023-04-15T12:17:01.775Z,90.56
2023-04-15T12:18:03.577Z,90.71
2023-04-15T12:19:09.436Z,89.60
2023-04-15T12:20:11.324Z,89.84
2023-04-15T12:21:13.674Z,89.91
2023-04-15T12:22:16.909Z,89.74
2023-04-15T12:23:21.498Z,90.06
2023-04-15T12:24:23.744Z,90.32
2023-04-15T12:25:34.684Z,91.00
2023-04-15T12:26:38.372Z,90.27
2023-04-15T12:27:40.165Z,90.81
2023-04-15T12:28:42.588Z,90.77
2023-04-15T12:29:44.619Z,90.99
2023-04-15T12:30:51.858Z,90.29
2023-04-15T12:31:54.798Z,89.42
2023-04-15T12:32:57.832Z,89.58
2023-04-15T12:34:01.573Z,89.26
2023-04-15T12:35:03.438Z,89.42
2023-04-15T12:36:06.144Z,89.47
2023-04-15T12:37:09.867Z,88.78
2023-04-15T12:38:11.752Z,88.87
2023-04-15T12:39:13.503Z,89.14
2023-04-15T12:40:15.634Z,89.29
2023-04-15T12:41:17.481Z,88.46
2023-04-15T12:42:19.425Z,89.29
2023-04-15T12:43:21.347Z,88.64
2023-04-15T12:44:24.323Z,89.31
2023-04-15T12:45:28.382Z,90.07
2023-04-15T12:46:31.675Z,90.06
2023-04-15T12:47:33.531Z,89.66
2023-04-15T12:48:35.381Z,90.20
2023-04-15T12:49:38.041Z,89.77
2023-04-15T12:50:39.836Z,89.00
2023-04-15T12:51:41.912Z,89.33
2023-04-15T12:52:43.718Z,89.43
2023-04-15T12:53:45.940Z,89.82
2023-04-15T12:54:47.812Z,88.71
2023-04-15T12:55:49.721Z,88.56
2023-04-15T12:56:52.002Z,88.68
2023-04-15T12:57:53.781Z,89.25
2023-04-15T12:58:56.071Z,89.56
2023-04-15T12:59:57.960Z,90.70
2023-04-15T13:00:59.843Z,89.54
2023-04-15T13:02:03.386Z,90.00
2023-04-15T13:03:07.008Z,89.66
2023-04-15T13:04:09.637Z,89.76
2023-04-15T13:05:11.883Z,89.97
2023-04-15T13:06:13.775Z,90.31
2023-04-15T13:07:15.870Z,89.94
2023-04-15T13:08:17.689Z,89.66
2023-04-15T13:09:19.490Z,90.22
2023-04-15T13:10:22.392Z,89.93
2023-04-15T13:11:24.338Z,90.73
2023-04-15T13:12:27.327Z,90.15
2023-04-15T13:13:29.262Z,90.11
2023-04-15T13:14:31.351Z,89.68
2023-04-15T13:15:33.254Z,90.23
2023-04-15T13:16:35.562Z,90.39
2023-04-15T13:17:37.490Z,90.60
2023-04-15T13:18:39.426Z,90.40
2023-04-15T13:19:41.311Z,90.47
2023-04-15T13:20:43.197Z,91.51
2023-04-15T13:21:45.104Z,91.87
2023-04-15T13:22:46.942Z,92.11
2023-04-15T13:23:49.779Z,93.32
2023-04-15T13:24:51.900Z,93.64
2023-04-15T13:25:53.719Z,93.04
2023-04-15T13:26:55.600Z,92.96
2023-04-15T13:27:58.210Z,92.73
2023-04-15T13:29:00.103Z,91.56
2023-04-15T13:30:02.004Z,91.04
2023-04-15T13:31:03.936Z,90.75